createdAt,value
2023-03-03T00:01:50.658Z,8.40
2023-03-03T00:04:17.759Z,8.10
2023-03-03T00:06:46.085Z,7.32
2023-03-03T00:09:13.205Z,8.40
2023-03-03T00:11:40.302Z,7.57
2023-03-03T00:14:22.295Z,8.18
2023-03-03T00:16:50.028Z,7.82
2023-03-03T00:19:19.961Z,7.47
2023-03-03T00:21:49.073Z,7.93
2023-03-03T00:24:36.892Z,7.40
2023-03-03T00:27:27.548Z,8.27
2023-03-03T00:29:57.233Z,7.85
2023-03-03T00:32:24.383Z,8.07
2023-03-03T00:34:53.672Z,7.97
2023-03-03T00:37:27.460Z,8.13
2023-03-03T00:40:13.958Z,7.75
2023-03-03T00:42:41.442Z,7.70
2023-03-03T00:45:31.676Z,8.25
2023-03-03T00:47:59.422Z,7.95
2023-03-03T00:50:36.052Z,8.13
2023-03-03T00:53:12.843Z,8.15
2023-03-03T00:55:40.669Z,8.38
2023-03-03T00:58:08.148Z,8.32
2023-03-03T01:00:41.932Z,8.63
2023-03-03T01:03:16.351Z,9.45
2023-03-03T01:05:44.042Z,7.97
2023-03-03T01:08:11.974Z,8.98
2023-03-03T01:10:51.309Z,7.88
2023-03-03T01:13:20.957Z,8.02
2023-03-03T01:15:48.313Z,8.38
2023-03-03T01:18:15.681Z,8.07
2023-03-03T01:20:43.198Z,7.57
2023-03-03T01:23:10.708Z,8.25
2023-03-03T01:25:38.006Z,7.60
2023-03-03T01:28:05.933Z,8.43
2023-03-03T01:30:33.126Z,7.82
2023-03-03T01:33:00.217Z,7.28
2023-03-03T01:35:27.574Z,7.50
2023-03-03T01:37:54.682Z,8.73
2023-03-03T01:40:24.834Z,7.65
2023-03-03T01:42:52.967Z,7.03
2023-03-03T01:45:27.152Z,7.28
2023-03-03T01:48:00.569Z,7.95
2023-03-03T01:50:39.903Z,8.00
2023-03-03T01:53:13.856Z,7.32
2023-03-03T01:55:42.767Z,7.80
2023-03-03T01:58:21.341Z,7.72
2023-03-03T02:00:53.396Z,7.88
2023-03-03T02:03:22.856Z,7.80
2023-03-03T02:05:52.240Z,8.65
2023-03-03T02:08:27.353Z,8.40
2023-03-03T02:10:56.050Z,7.72
2023-03-03T02:13:25.529Z,8.80
2023-03-03T02:15:57.006Z,7.85
2023-03-03T02:18:25.136Z,8.52
2023-03-03T02:21:04.427Z,7.70
2023-03-03T02:23:34.362Z,7.97
2023-03-03T02:26:12.496Z,7.90
2023-03-03T02:28:41.135Z,8.70
2023-03-03T02:31:15.935Z,8.05
2023-03-03T02:33:47.382Z,8.10
2023-03-03T02:36:17.393Z,8.05
2023-03-03T02:38:50.050Z,8.52
2023-03-03T02:41:22.960Z,8.43
2023-03-03T02:44:01.243Z,8.23
2023-03-03T02:46:37.009Z,8.63
2023-03-03T02:49:05.770Z,8.02
2023-03-03T02:51:33.603Z,9.43
2023-03-03T02:54:02.129Z,8.55
2023-03-03T02:56:31.786Z,9.00
2023-03-03T02:58:59.226Z,9.30
2023-03-03T03:01:28.004Z,8.45
2023-03-03T03:03:55.306Z,8.30
2023-03-03T03:06:23.487Z,8.55
2023-03-03T03:08:50.663Z,8.57
2023-03-03T03:11:17.757Z,7.72
2023-03-03T03:13:45.116Z,8.15
2023-03-03T03:16:13.057Z,9.18
2023-03-03T03:18:40.165Z,10.10
2023-03-03T03:21:12.305Z,7.88
2023-03-03T03:23:41.181Z,8.68
2023-03-03T03:26:08.693Z,8.00
2023-03-03T03:28:36.529Z,8.23
2023-03-03T03:31:05.297Z,8.13
2023-03-03T03:33:34.373Z,8.18
2023-03-03T03:36:02.168Z,8.88
2023-03-03T03:38:30.125Z,9.10
2023-03-03T03:40:58.172Z,8.68
2023-03-03T03:43:25.836Z,8.43
2023-03-03T03:45:53.465Z,9.07
2023-03-03T03:48:20.975Z,8.25
2023-03-03T03:50:49.840Z,9.20
2023-03-03T03:53:18.292Z,8.85
2023-03-03T03:55:47.305Z,9.35
2023-03-03T03:58:17.305Z,9.35
2023-03-03T04:00:48.884Z,10.35
2023-03-03T04:03:17.053Z,10.77
2023-03-03T04:05:46.196Z,9.80
2023-03-03T04:08:13.632Z,10.90
2023-03-03T04:10:42.898Z,9.98
2023-03-03T04:13:10.091Z,10.50
2023-03-03T04:15:37.366Z,11.13
2023-03-03T04:18:04.740Z,10.07
2023-03-03T04:20:31.925Z,10.02
2023-03-03T04:22:59.140Z,11.00
2023-03-03T04:25:26.761Z,9.88
2023-03-03T04:27:54.884Z,9.35
2023-03-03T04:30:23.262Z,9.93
2023-03-03T04:32:54.283Z,9.73
2023-03-03T04:35:24.266Z,11.00
2023-03-03T04:37:51.417Z,12.60
2023-03-03T04:40:18.661Z,11.43
2023-03-03T04:42:48.514Z,11.23
2023-03-03T04:45:15.771Z,11.85
2023-03-03T04:47:42.932Z,11.88
2023-03-03T04:50:11.013Z,12.25
2023-03-03T04:52:38.247Z,12.50
2023-03-03T04:55:10.282Z,12.13
2023-03-03T04:57:38.642Z,11.80
2023-03-03T05:00:06.880Z,10.70
2023-03-03T05:02:34.108Z,9.90
2023-03-03T05:05:01.485Z,9.93
2023-03-03T05:07:28.604Z,9.20
2023-03-03T05:09:55.733Z,8.85
2023-03-03T05:12:23.024Z,8.77
2023-03-03T05:14:50.159Z,8.52
2023-03-03T05:17:17.213Z,7.60
2023-03-03T05:19:44.385Z,8.10
2023-03-03T05:22:11.533Z,10.20
2023-03-03T05:24:38.675Z,8.75
2023-03-03T05:27:05.840Z,9.73
2023-03-03T05:29:33.646Z,8.45
2023-03-03T05:32:01.508Z,8.57
2023-03-03T05:34:28.768Z,8.48
2023-03-03T05:36:55.842Z,9.15
2023-03-03T05:39:23.496Z,8.88
2023-03-03T05:41:50.736Z,8.10
2023-03-03T05:44:20.514Z,9.52
2023-03-03T05:46:47.758Z,8.25
2023-03-03T05:49:14.806Z,8.25
2023-03-03T05:51:41.848Z,8.07
2023-03-03T05:54:09.050Z,7.90
2023-03-03T05:56:36.174Z,7.47
2023-03-03T05:59:03.704Z,9.20
2023-03-03T06:01:30.880Z,9.25
2023-03-03T06:03:58.025Z,8.23
2023-03-03T06:06:25.223Z,8.68
2023-03-03T06:08:56.857Z,8.15
2023-03-03T06:11:24.367Z,8.00
2023-03-03T06:13:51.622Z,10.00
2023-03-03T06:16:19.275Z,9.43
2023-03-03T06:18:46.523Z,9.40
2023-03-03T06:21:13.748Z,9.52
2023-03-03T06:23:41.355Z,10.52
2023-03-03T06:26:08.711Z,9.63
2023-03-03T06:28:35.885Z,9.23
2023-03-03T06:31:03.015Z,9.57
2023-03-03T06:33:30.282Z,9.68
2023-03-03T06:35:57.477Z,10.13
2023-03-03T06:38:24.720Z,9.77
2023-03-03T06:40:51.767Z,8.95
2023-03-03T06:43:18.998Z,9.88
2023-03-03T06:45:46.855Z,9.95
2023-03-03T06:48:13.987Z,9.55
2023-03-03T06:50:41.068Z,10.25
2023-03-03T06:53:16.184Z,9.70
2023-03-03T06:55:45.126Z,9.40
2023-03-03T06:58:18.040Z,9.25
2023-03-03T07:00:58.486Z,10.55
2023-03-03T07:03:29.830Z,11.38
2023-03-03T07:05:57.967Z,11.20
2023-03-03T07:08:26.301Z,10.15
2023-03-03T07:10:54.340Z,11.55
2023-03-03T07:13:26.087Z,10.50
2023-03-03T07:15:54.909Z,10.35
2023-03-03T07:18:37.528Z,9.57
2023-03-03T07:21:16.874Z,10.73
2023-03-03T07:23:46.216Z,10.43
2023-03-03T07:26:16.329Z,9.98
2023-03-03T07:28:51.759Z,9.77
2023-03-03T07:33:55.919Z,9.57
2023-03-03T07:36:36.437Z,11.23
2023-03-03T07:39:26.311Z,10.43
2023-03-03T07:42:00.661Z,9.98
2023-03-03T07:44:35.920Z,9.93
2023-03-03T07:47:25.397Z,11.88
2023-03-03T07:49:55.766Z,10.95
2023-03-03T07:52:41.722Z,9.88
2023-03-03T07:55:28.756Z,9.40
2023-03-03T07:57:59.134Z,10.00
2023-03-03T08:00:29.306Z,9.63
2023-03-03T08:02:58.800Z,10.05
2023-03-03T08:05:36.765Z,9.85
2023-03-03T08:08:22.135Z,10.68
2023-03-03T08:10:52.848Z,9.88
2023-03-03T08:13:22.608Z,9.80
2023-03-03T08:15:57.473Z,10.27
2023-03-03T08:18:36.962Z,10.50
2023-03-03T08:21:24.976Z,10.15
2023-03-03T08:23:53.828Z,9.23
2023-03-03T08:26:22.334Z,8.85
2023-03-03T08:28:49.949Z,9.35
2023-03-03T08:31:30.793Z,10.35
2023-03-03T08:34:05.441Z,9.00
2023-03-03T08:36:34.598Z,8.57
2023-03-03T08:39:02.305Z,8.98
2023-03-03T08:41:29.435Z,9.35
2023-03-03T08:43:56.566Z,8.13
2023-03-03T08:46:23.858Z,8.00
2023-03-03T08:48:51.530Z,9.73
2023-03-03T08:51:18.623Z,8.13
2023-03-03T08:53:45.691Z,8.55
2023-03-03T08:56:12.969Z,8.10
2023-03-03T08:58:49.895Z,6.35
2023-03-03T09:01:27.207Z,6.68
2023-03-03T09:03:54.354Z,7.63
2023-03-03T09:06:21.593Z,7.75
2023-03-03T09:08:49.499Z,8.00
2023-03-03T09:11:27.618Z,7.68
2023-03-03T09:14:05.020Z,7.70
2023-03-03T09:16:39.102Z,7.57
2023-03-03T09:19:37.542Z,6.95
2023-03-03T09:22:36.820Z,8.38
2023-03-03T09:25:32.016Z,9.57
2023-03-03T09:28:00.115Z,9.10
2023-03-03T09:30:28.254Z,8.90
2023-03-03T09:32:57.346Z,9.13
2023-03-03T09:35:36.154Z,9.15
2023-03-03T09:38:26.396Z,7.78
2023-03-03T09:41:37.686Z,7.13
2023-03-03T09:44:46.067Z,7.20
2023-03-03T09:47:22.259Z,8.60
2023-03-03T09:50:08.375Z,7.57
2023-03-03T09:52:41.475Z,8.80
2023-03-03T09:55:57.937Z,8.40
2023-03-03T09:58:45.842Z,7.65
2023-03-03T10:01:37.180Z,7.90
2023-03-03T10:04:07.458Z,7.32
2023-03-03T10:06:45.840Z,7.32
2023-03-03T10:09:40.160Z,7.43
2023-03-03T10:12:35.688Z,7.70
2023-03-03T10:15:02.684Z,6.68
2023-03-03T10:17:29.782Z,7.78
2023-03-03T10:20:02.732Z,7.72
2023-03-03T10:22:46.390Z,9.18
2023-03-03T10:25:38.221Z,8.38
2023-03-03T10:28:37.303Z,9.70
2023-03-03T10:31:29.267Z,9.05
2023-03-03T10:34:08.166Z,6.78
2023-03-03T10:36:55.566Z,8.57
2023-03-03T10:39:31.569Z,8.45
2023-03-03T10:42:22.508Z,8.80
2023-03-03T10:45:21.618Z,7.95
2023-03-03T10:48:10.491Z,7.30
2023-03-03T10:51:02.357Z,6.68
2023-03-03T10:53:41.164Z,7.72
2023-03-03T10:56:26.315Z,7.30
2023-03-03T10:59:05.377Z,7.97
2023-03-03T11:01:39.235Z,7.50
2023-03-03T11:04:25.161Z,6.45
2023-03-03T11:07:13.165Z,7.60
2023-03-03T11:09:45.057Z,6.65
2023-03-03T11:12:38.183Z,7.15
2023-03-03T11:15:30.954Z,7.28
2023-03-03T11:18:10.114Z,7.60
2023-03-03T11:20:52.991Z,6.75
2023-03-03T11:23:35.236Z,7.05
2023-03-03T11:26:14.972Z,6.25
2023-03-03T11:29:11.760Z,6.97
2023-03-03T11:31:47.088Z,6.15
2023-03-03T11:36:55.679Z,7.82
2023-03-03T11:39:29.062Z,7.88
2023-03-03T11:42:47.469Z,6.78
2023-03-03T11:45:20.056Z,6.32
2023-03-03T11:48:09.238Z,7.15
2023-03-03T11:50:44.224Z,6.65
2023-03-03T11:53:49.004Z,6.40
2023-03-03T11:56:42.207Z,7.05
2023-03-03T11:59:12.047Z,6.75
2023-03-03T12:02:17.547Z,7.53
2023-03-03T12:04:56.403Z,7.00
2023-03-03T12:07:35.643Z,6.75
2023-03-03T12:10:15.159Z,5.88
2023-03-03T12:12:51.872Z,5.88
2023-03-03T12:15:33.956Z,5.63
2023-03-03T12:18:27.169Z,5.95
2023-03-03T12:21:03.476Z,5.22
2023-03-03T12:24:12.434Z,5.85
2023-03-03T12:27:03.655Z,5.10
2023-03-03T12:29:41.920Z,6.00
2023-03-03T12:32:23.529Z,6.75
2023-03-03T12:35:13.885Z,5.40
2023-03-03T12:37:59.745Z,6.50
2023-03-03T12:40:37.326Z,5.78
2023-03-03T12:43:23.148Z,6.05
2023-03-03T12:48:45.910Z,6.75
2023-03-03T12:51:31.585Z,7.20
2023-03-03T12:54:23.098Z,7.63
2023-03-03T12:57:04.089Z,6.95
2023-03-03T12:59:53.557Z,6.13
2023-03-03T13:02:41.333Z,6.13
2023-03-03T13:05:27.628Z,5.88
2023-03-03T13:08:18.947Z,6.50
2023-03-03T13:11:01.797Z,6.25
2023-03-03T13:14:12.857Z,5.30
2023-03-03T13:17:08.982Z,6.25
2023-03-03T13:19:48.571Z,6.60
2023-03-03T13:22:31.396Z,5.78
2023-03-03T13:25:27.589Z,7.07
2023-03-03T13:28:02.593Z,8.63
2023-03-03T13:30:40.488Z,7.28
2023-03-03T13:33:27.469Z,7.05
2023-03-03T13:36:00.179Z,7.25
2023-03-03T13:38:32.787Z,7.45
2023-03-03T13:41:25.051Z,7.43
2023-03-03T13:43:57.730Z,6.78
2023-03-03T13:46:41.661Z,5.85
2023-03-03T13:49:20.378Z,6.22
2023-03-03T13:52:08.208Z,6.35
2023-03-03T13:54:53.605Z,6.60
2023-03-03T13:57:40.282Z,7.38
2023-03-03T14:00:22.231Z,6.38
2023-03-03T14:03:23.342Z,7.30
2023-03-03T14:06:02.408Z,5.78
2023-03-03T14:08:32.311Z,6.20
2023-03-03T14:11:28.448Z,6.47
2023-03-03T14:14:12.628Z,7.03
2023-03-03T14:16:55.740Z,5.93
2023-03-03T14:19:33.330Z,6.97
2023-03-03T14:22:12.345Z,7.75
2023-03-03T14:25:01.841Z,7.25
2023-03-03T14:27:42.014Z,8.18
2023-03-03T14:30:33.299Z,7.50
2023-03-03T14:33:09.469Z,7.55
2023-03-03T14:35:41.402Z,6.93
2023-03-03T14:38:08.907Z,8.10
2023-03-03T14:40:39.203Z,7.43
2023-03-03T14:43:26.722Z,8.32
2023-03-03T14:45:55.198Z,9.18
2023-03-03T14:48:23.360Z,8.35
2023-03-03T14:51:04.841Z,8.90
2023-03-03T14:53:36.034Z,9.75
2023-03-03T14:56:25.156Z,10.43
2023-03-03T14:58:54.389Z,10.38
2023-03-03T15:01:24.551Z,10.55
2023-03-03T15:03:57.692Z,10.88
2023-03-03T15:06:52.063Z,12.25
2023-03-03T15:09:27.661Z,10.38
2023-03-03T15:11:56.913Z,10.65
2023-03-03T15:14:38.830Z,11.35
2023-03-03T15:17:26.792Z,11.25
2023-03-03T15:20:38.311Z,10.88
2023-03-03T15:23:08.161Z,12.13
2023-03-03T15:25:54.989Z,13.05
2023-03-03T15:28:43.267Z,12.90
2023-03-03T15:31:27.493Z,13.15
2023-03-03T15:34:23.112Z,13.38
2023-03-03T15:37:07.721Z,12.48
2023-03-03T15:39:54.047Z,13.63
2023-03-03T15:42:35.923Z,12.73
2023-03-03T15:45:16.005Z,11.80
2023-03-03T15:48:16.976Z,12.20
2023-03-03T15:51:06.872Z,13.65
2023-03-03T15:54:01.784Z,10.57
2023-03-03T15:56:48.044Z,11.18
2023-03-03T15:59:46.623Z,12.25
2023-03-03T16:02:39.664Z,11.73
2023-03-03T16:05:20.777Z,12.88
2023-03-03T16:08:01.056Z,11.73
2023-03-03T16:10:40.470Z,13.80
2023-03-03T16:13:25.852Z,14.20
2023-03-03T16:15:56.027Z,12.63
2023-03-03T16:18:58.532Z,12.07
2023-03-03T16:22:03.186Z,10.57
2023-03-03T16:24:48.608Z,9.75
2023-03-03T16:27:49.087Z,12.38
2023-03-03T16:30:43.593Z,13.05
2023-03-03T16:33:38.040Z,11.48
2023-03-03T16:36:23.435Z,11.88
2023-03-03T16:39:13.333Z,12.43
2023-03-03T16:42:12.388Z,11.55
2023-03-03T16:44:47.983Z,11.30
2023-03-03T16:47:36.996Z,10.98
2023-03-03T16:50:13.235Z,11.32
2023-03-03T16:53:14.810Z,11.40
2023-03-03T16:56:08.338Z,11.15
2023-03-03T16:58:49.164Z,11.45
2023-03-03T17:01:56.424Z,11.07
2023-03-03T17:05:06.642Z,10.95
2023-03-03T17:08:10.944Z,11.02
2023-03-03T17:10:53.952Z,11.45
2023-03-03T17:13:47.106Z,11.80
2023-03-03T17:16:21.472Z,11.18
2023-03-03T17:19:05.937Z,12.73
2023-03-03T17:21:50.352Z,11.43
2023-03-03T17:24:51.748Z,12.65
2023-03-03T17:27:28.326Z,13.40
2023-03-03T17:30:14.042Z,13.30
2023-03-03T17:32:49.591Z,14.02
2023-03-03T17:35:59.513Z,12.88
2023-03-03T17:39:04.311Z,12.25
2023-03-03T17:41:51.603Z,11.98
2023-03-03T17:45:06.643Z,12.32
2023-03-03T17:47:55.947Z,11.73
2023-03-03T17:50:57.452Z,11.80
2023-03-03T17:54:16.860Z,13.07
2023-03-03T17:56:50.745Z,13.88
2023-03-03T17:59:47.994Z,13.40
2023-03-03T18:02:21.103Z,14.48
2023-03-03T18:05:18.808Z,15.48
2023-03-03T18:08:09.948Z,14.18
2023-03-03T18:11:01.768Z,13.35
2023-03-03T18:13:35.222Z,14.57
2023-03-03T18:16:18.797Z,14.20
2023-03-03T18:19:12.919Z,11.35
2023-03-03T18:21:48.830Z,13.40
2023-03-03T18:24:51.161Z,15.60
2023-03-03T18:27:24.211Z,15.90
2023-03-03T18:30:18.768Z,13.73
2023-03-03T18:33:01.364Z,14.20
2023-03-03T18:35:33.995Z,16.00
2023-03-03T18:38:16.286Z,14.98
2023-03-03T18:41:04.662Z,16.75
2023-03-03T18:43:43.792Z,15.80
2023-03-03T18:46:23.889Z,14.55
2023-03-03T18:48:54.230Z,13.75
2023-03-03T18:51:39.466Z,14.60
2023-03-03T18:54:12.772Z,15.48
2023-03-03T18:57:00.682Z,13.18
2023-03-03T18:59:30.689Z,14.15
2023-03-03T19:02:12.623Z,13.38
2023-03-03T19:04:55.786Z,11.38
2023-03-03T19:07:27.914Z,12.82
2023-03-03T19:10:01.668Z,12.88
2023-03-03T19:12:44.398Z,12.35
2023-03-03T19:15:29.809Z,12.75
2023-03-03T19:18:03.454Z,11.73
2023-03-03T19:20:43.436Z,12.68
2023-03-03T19:23:20.447Z,11.85
2023-03-03T19:26:25.324Z,11.27
2023-03-03T19:29:11.965Z,10.95
2023-03-03T19:32:17.119Z,11.60
2023-03-03T19:35:08.563Z,11.02
2023-03-03T19:37:41.431Z,12.05
2023-03-03T19:40:20.935Z,12.70
2023-03-03T19:42:50.674Z,12.75
2023-03-03T19:45:32.108Z,12.88
2023-03-03T19:48:15.266Z,13.10
2023-03-03T19:51:02.109Z,12.98
2023-03-03T19:53:51.051Z,14.25
2023-03-03T19:56:29.823Z,14.75
2023-03-03T19:59:09.968Z,14.30
2023-03-03T20:01:59.641Z,14.32
2023-03-03T20:04:45.156Z,14.75
2023-03-03T20:07:33.930Z,13.32
2023-03-03T20:10:06.758Z,13.88
2023-03-03T20:12:53.407Z,15.07
2023-03-03T20:15:28.563Z,13.65
2023-03-03T20:18:01.926Z,14.90
2023-03-03T20:20:55.617Z,16.08
2023-03-03T20:23:37.337Z,17.50
2023-03-03T20:26:28.189Z,17.08
2023-03-03T20:29:36.701Z,13.55
2023-03-03T20:32:20.895Z,14.75
2023-03-03T20:35:09.722Z,16.23
2023-03-03T20:38:07.127Z,15.93
2023-03-03T20:40:44.136Z,16.77
2023-03-03T20:43:48.346Z,15.90
2023-03-03T20:47:09.461Z,14.48
2023-03-03T20:50:24.562Z,16.20
2023-03-03T20:52:57.460Z,20.45
2023-03-03T20:55:47.806Z,19.00
2023-03-03T20:58:36.509Z,20.17
2023-03-03T21:01:32.899Z,19.52
2023-03-03T21:06:48.237Z,19.90
2023-03-03T21:09:28.101Z,20.83
2023-03-03T21:11:56.544Z,19.40
2023-03-03T21:14:34.281Z,20.60
2023-03-03T21:17:11.713Z,19.95
2023-03-03T21:19:38.770Z,20.45
2023-03-03T21:22:06.039Z,20.67
2023-03-03T21:24:55.527Z,19.65
2023-03-03T21:27:27.265Z,19.83
2023-03-03T21:30:12.506Z,21.30
2023-03-03T21:32:48.266Z,20.17
2023-03-03T21:35:19.051Z,19.70
2023-03-03T21:37:53.726Z,19.17
2023-03-03T21:40:27.609Z,19.17
2023-03-03T21:42:57.271Z,18.02
2023-03-03T21:45:24.800Z,19.83
2023-03-03T21:47:54.974Z,21.08
2023-03-03T21:50:22.279Z,19.30
2023-03-03T21:52:49.506Z,21.05
2023-03-03T21:55:16.588Z,21.45
2023-03-03T21:57:43.678Z,21.95
2023-03-03T22:00:11.942Z,22.05
2023-03-03T22:02:38.994Z,24.23
2023-03-03T22:05:07.750Z,23.38
2023-03-03T22:07:34.928Z,23.63
2023-03-03T22:10:03.130Z,23.58
2023-03-03T22:12:30.208Z,24.27
2023-03-03T22:14:57.288Z,25.05
2023-03-03T22:17:25.640Z,25.45
2023-03-03T22:19:52.978Z,26.55
2023-03-03T22:22:20.082Z,24.67
2023-03-03T22:24:47.382Z,24.95
2023-03-03T22:27:14.671Z,26.08
2023-03-03T22:29:41.704Z,26.00
2023-03-03T22:32:08.917Z,28.13
2023-03-03T22:34:36.321Z,28.58
2023-03-03T22:37:03.459Z,30.67
2023-03-03T22:39:30.601Z,32.40
2023-03-03T22:41:57.749Z,30.70
2023-03-03T22:44:24.886Z,30.98
2023-03-03T22:46:51.952Z,29.70
2023-03-03T22:49:19.032Z,30.27
2023-03-03T22:51:46.138Z,28.13
2023-03-03T22:54:13.199Z,25.17
2023-03-03T22:56:40.300Z,26.30
2023-03-03T22:59:07.443Z,26.80
2023-03-03T23:01:34.654Z,25.05
2023-03-03T23:04:01.720Z,28.55
2023-03-03T23:06:28.798Z,29.25
2023-03-03T23:08:55.906Z,29.80
2023-03-03T23:11:24.765Z,31.15
2023-03-03T23:13:51.789Z,31.17
2023-03-03T23:16:19.022Z,28.13
2023-03-03T23:18:46.424Z,30.10
2023-03-03T23:21:13.511Z,28.95
2023-03-03T23:23:40.537Z,29.10
2023-03-03T23:26:07.638Z,28.45
2023-03-03T23:28:34.865Z,28.77
2023-03-03T23:31:02.192Z,27.13
2023-03-03T23:33:29.316Z,27.13
2023-03-03T23:35:56.393Z,27.75
2023-03-03T23:38:23.469Z,27.48
2023-03-03T23:40:50.568Z,27.77
2023-03-03T23:43:17.636Z,25.83
2023-03-03T23:45:45.221Z,24.90
2023-03-03T23:48:12.416Z,25.38
2023-03-03T23:50:39.680Z,27.15
2023-03-03T23:53:07.863Z,24.88
2023-03-03T23:55:36.352Z,24.60
2023-03-03T23:58:04.641Z,24.73
